createdAt,value
2024-03-02T00:03:33.849Z,52.80
2024-03-02T00:08:37.657Z,39.40
2024-03-02T00:13:41.403Z,56.22
2024-03-02T00:18:46.503Z,52.00
2024-03-02T00:23:53.093Z,51.45
2024-03-02T00:28:59.018Z,46.53
2024-03-02T00:34:08.603Z,51.88
2024-03-02T00:39:17.310Z,48.60
2024-03-02T00:44:22.332Z,52.53
2024-03-02T00:49:27.838Z,46.40
2024-03-02T00:59:34.837Z,48.17
2024-03-02T01:04:39.463Z,46.42
2024-03-02T01:09:42.975Z,51.87
2024-03-02T01:14:46.401Z,44.58
2024-03-02T01:19:51.084Z,46.10
2024-03-02T01:24:54.536Z,42.20
2024-03-02T01:29:57.846Z,48.92
2024-03-02T01:35:02.497Z,42.15
2024-03-02T01:40:10.376Z,39.00
2024-03-02T01:45:13.846Z,39.17
2024-03-02T01:50:26.514Z,42.40
2024-03-02T01:55:31.211Z,39.25
2024-03-02T02:00:34.677Z,39.47
2024-03-02T02:05:39.638Z,38.75
2024-03-02T02:10:43.696Z,36.17
2024-03-02T02:15:47.508Z,42.85
2024-03-02T02:20:52.328Z,31.33
2024-03-02T02:25:57.065Z,38.20
2024-03-02T02:31:01.854Z,34.73
2024-03-02T02:36:06.474Z,36.85
2024-03-02T02:41:11.272Z,36.90
2024-03-02T02:46:14.484Z,32.83
2024-03-02T02:51:18.745Z,34.22
2024-03-02T02:56:23.341Z,35.90
2024-03-02T03:01:26.946Z,38.53
2024-03-02T03:06:30.260Z,36.70
2024-03-02T03:11:35.022Z,35.70
2024-03-02T03:16:38.332Z,35.67
2024-03-02T03:21:41.640Z,38.92
2024-03-02T03:26:46.327Z,31.23
2024-03-02T03:31:49.581Z,31.20
2024-03-02T03:36:52.917Z,34.92
2024-03-02T03:41:57.550Z,34.65
2024-03-02T03:47:02.055Z,30.27
2024-03-02T03:52:06.293Z,30.58
2024-03-02T03:57:11.001Z,31.73
2024-03-02T04:02:14.412Z,28.17
2024-03-02T04:07:17.727Z,31.15
2024-03-02T04:12:22.470Z,35.85
2024-03-02T04:17:26.915Z,31.55
2024-03-02T04:22:30.497Z,32.03
2024-03-02T04:27:35.689Z,33.08
2024-03-02T04:32:39.882Z,38.92
2024-03-02T04:37:43.662Z,33.45
2024-03-02T04:42:48.413Z,33.00
2024-03-02T04:47:51.780Z,40.87
2024-03-02T04:52:55.187Z,33.28
2024-03-02T04:58:00.313Z,31.05
2024-03-02T05:03:04.191Z,33.13
2024-03-02T05:08:07.896Z,31.73
2024-03-02T05:13:12.579Z,34.70
2024-03-02T05:18:16.083Z,33.03
2024-03-02T05:23:19.551Z,29.63
2024-03-02T05:28:24.266Z,29.55
2024-03-02T05:33:27.594Z,36.63
2024-03-02T05:38:31.219Z,34.90
2024-03-02T05:43:36.241Z,37.47
2024-03-02T05:48:39.577Z,33.80
2024-03-02T05:53:43.125Z,37.60
2024-03-02T05:58:59.025Z,34.05
2024-03-02T06:04:02.387Z,36.08
2024-03-02T06:09:09.098Z,35.90
2024-03-02T06:14:14.100Z,31.38
2024-03-02T06:19:17.496Z,32.67
2024-03-02T06:24:20.825Z,33.88
2024-03-02T06:29:25.494Z,33.22
2024-03-02T06:34:29.233Z,37.70
2024-03-02T06:39:35.139Z,36.15
2024-03-02T06:44:39.774Z,40.22
2024-03-02T06:49:43.413Z,40.70
2024-03-02T06:54:46.737Z,35.47
2024-03-02T06:59:54.961Z,35.65
2024-03-02T07:04:58.660Z,41.05
2024-03-02T07:10:02.166Z,37.22
2024-03-02T07:15:26.116Z,36.35
2024-03-02T07:20:29.530Z,45.58
2024-03-02T07:30:41.125Z,37.15
2024-03-02T07:40:47.577Z,32.90
2024-03-02T07:45:52.317Z,33.92
2024-03-02T07:50:55.570Z,33.50
2024-03-02T07:56:03.376Z,39.80
2024-03-02T08:01:08.048Z,30.23
2024-03-02T08:06:11.404Z,33.60
2024-03-02T08:11:14.645Z,35.38
2024-03-02T08:16:21.045Z,42.38
2024-03-02T08:21:24.463Z,32.05
2024-03-02T08:26:30.075Z,35.85
2024-03-02T08:31:34.716Z,36.78
2024-03-02T08:36:38.220Z,32.07
2024-03-02T08:41:41.503Z,39.60
2024-03-02T08:46:46.540Z,37.40
2024-03-02T08:51:55.723Z,28.50
2024-03-02T08:56:59.242Z,32.80
2024-03-02T09:02:03.925Z,35.85
2024-03-02T09:07:08.453Z,37.88
2024-03-02T09:12:12.151Z,34.75
2024-03-02T09:17:16.898Z,36.88
2024-03-02T09:22:20.306Z,36.30
2024-03-02T09:27:23.735Z,35.33
2024-03-02T09:32:28.449Z,35.13
2024-03-02T09:37:31.767Z,29.77
2024-03-02T09:42:35.093Z,32.40
2024-03-02T09:47:40.391Z,32.80
2024-03-02T09:52:45.017Z,24.40
2024-03-02T09:57:49.704Z,28.67
2024-03-02T10:02:54.527Z,32.60
2024-03-02T10:08:04.761Z,28.70
2024-03-02T10:13:09.852Z,24.45
2024-03-02T10:18:17.099Z,26.17
2024-03-02T10:23:21.904Z,24.98
2024-03-02T10:28:25.466Z,28.00
2024-03-02T10:33:31.098Z,23.73
2024-03-02T10:38:34.455Z,23.45
2024-03-02T10:43:38.250Z,26.38
2024-03-02T10:48:46.064Z,27.60
2024-03-02T10:53:49.664Z,24.55
2024-03-02T10:58:57.647Z,20.80
2024-03-02T11:04:06.558Z,21.02
2024-03-02T11:09:11.674Z,17.48
2024-03-02T11:14:18.664Z,11.60
2024-03-02T11:19:23.983Z,15.05
2024-03-02T11:29:47.014Z,15.40
2024-03-02T11:34:52.865Z,16.88
2024-03-02T11:39:56.669Z,15.60
2024-03-02T11:45:00.156Z,17.58
2024-03-02T11:50:08.032Z,14.52
2024-03-02T11:55:13.796Z,14.32
2024-03-02T12:00:20.272Z,15.23
2024-03-02T12:05:25.494Z,18.30
2024-03-02T12:10:29.134Z,14.90
2024-03-02T12:15:34.384Z,15.23
2024-03-02T12:25:43.044Z,16.30
2024-03-02T12:30:46.520Z,14.13
2024-03-02T12:35:52.053Z,14.38
2024-03-02T12:40:55.814Z,13.15
2024-03-02T12:45:59.360Z,14.90
2024-03-02T12:51:04.777Z,12.52
2024-03-02T13:01:16.049Z,12.87
2024-03-02T13:06:21.968Z,16.40
2024-03-02T13:11:27.327Z,13.48
2024-03-02T13:16:33.239Z,14.40
2024-03-02T13:21:45.202Z,11.50
2024-03-02T13:26:48.560Z,14.93
2024-03-02T13:31:53.617Z,9.85
2024-03-02T13:36:58.558Z,11.25
2024-03-02T13:42:05.360Z,16.30
2024-03-02T13:47:08.930Z,11.18
2024-03-02T13:52:14.629Z,14.38
2024-03-02T13:57:23.129Z,12.35
2024-03-02T14:02:28.124Z,12.70
2024-03-02T14:07:32.867Z,13.25
2024-03-02T14:12:36.252Z,12.77
2024-03-02T14:17:39.553Z,9.85
2024-03-02T14:22:44.597Z,13.27
2024-03-02T14:28:07.745Z,10.60
2024-03-02T14:33:12.040Z,11.32
2024-03-02T14:38:16.746Z,11.13
2024-03-02T14:43:20.074Z,8.88
2024-03-02T14:48:23.699Z,8.52
2024-03-02T14:53:28.324Z,7.80
2024-03-02T14:58:31.616Z,7.93
2024-03-02T15:03:35.339Z,8.98
2024-03-02T15:08:42.560Z,10.75
2024-03-02T15:13:46.033Z,10.98
2024-03-02T15:18:49.547Z,7.28
2024-03-02T15:23:54.407Z,9.27
2024-03-02T15:29:00.157Z,8.30
2024-03-02T15:34:04.091Z,10.20
2024-03-02T15:39:10.120Z,9.82
2024-03-02T15:44:13.679Z,13.82
2024-03-02T15:49:20.013Z,10.05
2024-03-02T15:54:25.908Z,9.18
2024-03-02T15:59:29.127Z,12.50
2024-03-02T16:04:32.392Z,11.80
2024-03-02T16:09:37.096Z,13.32
2024-03-02T16:14:40.800Z,9.80
2024-03-02T16:19:44.135Z,10.75
2024-03-02T16:24:48.870Z,19.83
2024-03-02T16:29:52.252Z,12.50
2024-03-02T16:34:56.865Z,17.70
2024-03-02T16:40:01.684Z,19.83
2024-03-02T16:45:05.445Z,18.97
2024-03-02T16:50:12.974Z,20.70
2024-03-02T16:55:18.286Z,17.83
2024-03-02T17:00:22.286Z,16.55
2024-03-02T17:05:25.638Z,22.63
2024-03-02T17:10:30.317Z,19.95
2024-03-02T17:15:33.538Z,29.13
2024-03-02T17:20:36.850Z,27.90
2024-03-02T17:25:41.514Z,29.08
2024-03-02T17:30:44.821Z,43.80
2024-03-02T17:35:48.650Z,50.15
2024-03-02T17:40:53.269Z,36.25
2024-03-02T17:45:56.631Z,31.03
2024-03-02T17:50:59.990Z,40.97
2024-03-02T17:56:06.154Z,34.88
2024-03-02T18:01:10.386Z,39.38
2024-03-02T18:06:15.693Z,38.83
2024-03-02T18:11:21.511Z,45.78
2024-03-02T18:16:25.163Z,32.08
2024-03-02T18:21:29.147Z,40.88
2024-03-02T18:26:35.877Z,33.22
2024-03-02T18:31:39.683Z,33.42
2024-03-02T18:36:43.714Z,37.53
2024-03-02T18:41:48.375Z,39.75
2024-03-02T18:46:51.735Z,39.87
2024-03-02T18:51:55.140Z,38.08
2024-03-02T18:56:59.906Z,40.72
2024-03-02T19:02:03.256Z,52.70
2024-03-02T19:07:07.059Z,43.00
2024-03-02T19:12:11.852Z,43.17
2024-03-02T19:17:15.142Z,43.40
2024-03-02T19:22:18.468Z,47.03
2024-03-02T19:27:23.128Z,49.08
2024-03-02T19:32:26.517Z,48.83
2024-03-02T19:37:29.839Z,49.70
2024-03-02T19:42:35.970Z,46.25
2024-03-02T19:47:39.490Z,49.00
2024-03-02T19:52:42.838Z,45.35
2024-03-02T19:57:47.630Z,46.03
2024-03-02T20:02:51.477Z,50.53
2024-03-02T20:07:55.001Z,52.60
2024-03-02T20:13:00.172Z,47.95
2024-03-02T20:18:03.659Z,46.88
2024-03-02T20:23:07.433Z,56.58
2024-03-02T20:28:12.262Z,46.03
2024-03-02T20:33:16.076Z,55.08
2024-03-02T20:38:19.963Z,50.15
2024-03-02T20:43:24.628Z,52.28
2024-03-02T20:48:29.753Z,44.00
2024-03-02T20:53:33.234Z,50.40
2024-03-02T20:58:37.863Z,49.65
2024-03-02T21:03:41.805Z,51.50
2024-03-02T21:08:45.181Z,48.80
2024-03-02T21:13:50.517Z,52.80
2024-03-02T21:18:55.004Z,52.50
2024-03-02T21:23:58.425Z,50.50
2024-03-02T21:29:05.217Z,51.60
2024-03-02T21:34:08.615Z,58.75
2024-03-02T21:39:11.949Z,54.88
2024-03-02T21:44:16.714Z,54.13
2024-03-02T21:49:20.673Z,53.93
2024-03-02T21:54:23.978Z,56.42
2024-03-02T21:59:28.637Z,57.42
2024-03-02T22:04:32.352Z,56.67
2024-03-02T22:09:36.045Z,58.92
2024-03-02T22:14:41.049Z,56.05
2024-03-02T22:19:44.707Z,61.17
2024-03-02T22:24:48.007Z,54.67
2024-03-02T22:29:52.696Z,56.17
2024-03-02T22:34:56.528Z,61.90
2024-03-02T22:40:00.107Z,54.58
2024-03-02T22:45:05.203Z,55.40
2024-03-02T22:50:09.601Z,57.13
2024-03-02T22:55:13.136Z,52.58
2024-03-02T23:00:32.695Z,54.65
2024-03-02T23:05:36.008Z,56.85
2024-03-02T23:10:39.411Z,48.70
2024-03-02T23:15:44.568Z,47.30
2024-03-02T23:20:48.378Z,49.33
2024-03-02T23:25:52.473Z,51.03
2024-03-02T23:30:57.530Z,65.78
2024-03-02T23:36:00.915Z,55.70
2024-03-02T23:41:11.370Z,54.42
2024-03-02T23:46:16.686Z,57.17
2024-03-02T23:51:20.163Z,54.33
2024-03-02T23:56:23.510Z,56.85
